Portada
METAR-TAF:

METAR-TAF

Aeropuertos :

Damasco, Siria

Aeropuerto Internacional de Damasco

latitud: 33-25N, longitud: 036-31E, altitud: 608 m

Observación

El informe se hizo hace 35 minutos, a las 22:00 UTC
Viento 16 kt del suroeste
Temperatura 23°C
Humedad 61%
Presión 1010 hPa
Visibilidad 10 km o más
sin nubes por debajo de 1500 m y sin presencia de cumulonimbus.

METAR: OSDI 222200Z 22016KT CAVOK 23/15 Q1010

Hora: 01:35 (22:35 UTC)

Pronóstico

El informe se hizo hace 6 horas y 10 minutos, a las 16:25 UTC
Pronóstico válido del 22 a las 18 UTC al 23 a las 24 UTC
Viento 10 kt del suroeste
Visibilidad 10 km o más
sin nubes por debajo de 1500 m y sin presencia de cumulonimbus.
Temporalmente
del 23 a las 12 UTC al 23 a las 18 UTC
Viento 15 kt del oeste-suroeste con ráfagas de 25 kt
Visibilidad 10 km o más
Escasas nubes a una altura de 3000 ft

TAF: OSDI 221625Z 2218/2324 22010KT CAVOK TEMPO 2312/2318 25015G25KT 9999 FEW030

Observaciones y pronósticos meteorológicos de más de 4000 aeropuertos (mensajes METAR y TAF).

Los puntos amarillos y rojos representan las estaciones disponibles.

Ponga el ratón en el punto deseado para ver el nombre de la estación.

Haga clic para ver las observaciones y los pronósticos meteorológicos.

Para cambiar el mapa : haga clic en los botones verdes con una cruz de color negro para hacer un zoom, en el botón verde con un guión para alejar o en las flechas verdes para mapas adyacentes.


METAR-TAF: